Time;durP1;ratioP1;P1;durP2;ratioP2;P2;SDS_P1;SDS_P2;PMS_P1;PMS_P2;Temp;Humidity;BMP_temperature;BMP_pressure;BME280_temperature;BME280_humidity;BME280_pressure;Samples;Min_cycle;Max_cycle;Signal;HPM_P1;HPM_P2
2022/02/18 00:01:17;;;;;;;5.93;2.40;;;9.60;99.90;;;;;;5089306;28;20500;-54
2022/02/18 00:03:47;;;;;;;6.40;1.80;;;9.60;99.90;;;;;;5088577;28;20453;-53
2022/02/18 00:06:17;;;;;;;3.80;2.13;;;9.60;99.90;;;;;;5090872;28;20413;-54
2022/02/18 00:08:46;;;;;;;2.10;1.40;;;9.60;99.90;;;;;;5088527;28;20449;-50
2022/02/18 00:11:14;;;;;;;5.70;1.70;;;9.60;99.90;;;;;;5089338;28;20459;-52
2022/02/18 00:13:43;;;;;;;4.80;1.90;;;9.60;99.90;;;;;;5087700;28;20458;-52
2022/02/18 00:16:11;;;;;;;5.27;2.13;;;9.60;99.90;;;;;;5089336;28;20433;-50
2022/02/18 00:18:39;;;;;;;4.70;1.63;;;9.60;99.90;;;;;;5101466;28;20548;-54
2022/02/18 00:21:07;;;;;;;7.47;2.77;;;9.60;99.90;;;;;;5089399;28;20952;-51
2022/02/18 00:23:40;;;;;;;6.80;2.00;;;9.60;99.90;;;;;;5091902;28;20820;-52
2022/02/18 00:26:08;;;;;;;3.20;1.90;;;9.60;99.90;;;;;;5092981;28;20429;-54
2022/02/18 00:28:37;;;;;;;2.70;1.67;;;9.60;99.90;;;;;;5091865;28;20453;-52
2022/02/18 00:31:05;;;;;;;4.30;1.90;;;9.60;99.90;;;;;;5077538;28;21261;-51
2022/02/18 00:33:34;;;;;;;5.87;2.67;;;9.50;99.90;;;;;;5108703;28;20539;-50
2022/02/18 00:36:02;;;;;;;3.43;1.63;;;9.60;99.90;;;;;;5110715;28;20443;-53
2022/02/18 00:38:30;;;;;;;6.77;2.30;;;9.50;99.90;;;;;;5092333;28;20499;-53
2022/02/18 00:40:59;;;;;;;5.93;2.03;;;9.50;99.90;;;;;;5092293;28;22403;-52
2022/02/18 00:43:27;;;;;;;6.37;2.20;;;9.50;99.90;;;;;;5100372;28;20452;-52
2022/02/18 00:45:55;;;;;;;6.47;2.40;;;9.50;99.90;;;;;;5076709;28;20432;-51
2022/02/18 00:48:24;;;;;;;4.63;2.13;;;9.50;99.90;;;;;;5091793;28;20792;-53
2022/02/18 00:50:52;;;;;;;3.73;1.80;;;9.50;99.90;;;;;;5091465;28;20480;-50
2022/02/18 00:53:20;;;;;;;7.50;1.90;;;9.50;99.90;;;;;;5074094;28;20552;-50
2022/02/18 00:55:50;;;;;;;4.07;2.10;;;9.50;99.90;;;;;;5107202;28;20444;-54
2022/02/18 00:58:20;;;;;;;4.70;2.00;;;9.50;99.90;;;;;;5110976;28;21016;-52
2022/02/18 01:00:50;;;;;;;3.90;1.97;;;9.50;99.90;;;;;;5092587;28;20897;-55
2022/02/18 01:03:18;;;;;;;10.20;2.87;;;9.50;99.90;;;;;;5090454;28;20429;-52
2022/02/18 01:05:49;;;;;;;4.23;1.40;;;9.50;99.90;;;;;;5093351;28;20454;-51
2022/02/18 01:08:17;;;;;;;10.53;2.00;;;9.50;99.90;;;;;;5106420;28;20432;-53
2022/02/18 01:10:46;;;;;;;3.50;1.90;;;9.50;99.90;;;;;;5095605;28;20459;-52
2022/02/18 01:13:14;;;;;;;6.27;1.50;;;9.50;99.90;;;;;;5082471;28;20469;-52
2022/02/18 01:15:43;;;;;;;3.33;1.70;;;9.50;99.90;;;;;;5074660;28;20429;-51
2022/02/18 01:18:12;;;;;;;14.10;3.40;;;9.50;99.90;;;;;;5092312;28;20437;-51
2022/02/18 01:20:43;;;;;;;4.37;2.07;;;9.50;99.90;;;;;;5088373;28;20483;-54
2022/02/18 01:23:11;;;;;;;4.50;2.77;;;9.50;99.90;;;;;;5110458;28;20512;-52
2022/02/18 01:25:41;;;;;;;5.50;1.97;;;9.50;99.90;;;;;;5094983;28;20424;-51
2022/02/18 01:28:12;;;;;;;6.65;1.75;;;9.50;99.90;;;;;;5075973;28;20447;-52
2022/02/18 01:30:40;;;;;;;4.50;1.60;;;9.50;99.90;;;;;;5076582;28;20203;-52
2022/02/18 01:33:09;;;;;;;2.87;1.70;;;9.50;99.90;;;;;;5093363;28;20442;-53
2022/02/18 01:35:37;;;;;;;4.97;1.83;;;9.50;99.90;;;;;;5083931;28;20445;-52
2022/02/18 01:38:06;;;;;;;1.70;1.43;;;9.50;99.90;;;;;;5090129;28;20425;-55
2022/02/18 01:40:34;;;;;;;3.93;1.67;;;9.50;99.90;;;;;;5090468;28;20976;-52
2022/02/18 01:43:02;;;;;;;4.00;1.50;;;9.50;99.90;;;;;;5080089;28;20530;-53
2022/02/18 01:45:30;;;;;;;3.73;1.57;;;9.50;99.90;;;;;;5109086;28;20441;-50
2022/02/18 01:47:59;;;;;;;7.97;1.80;;;9.50;99.90;;;;;;5111157;28;20467;-51
2022/02/18 01:50:28;;;;;;;3.13;1.90;;;9.50;99.90;;;;;;5094718;28;20529;-52
2022/02/18 01:52:57;;;;;;;4.77;2.00;;;9.50;99.90;;;;;;5098499;28;20425;-52
2022/02/18 01:55:27;;;;;;;2.70;1.53;;;9.50;99.90;;;;;;5105418;28;20471;-51
2022/02/18 01:57:58;;;;;;;3.40;1.70;;;9.50;99.90;;;;;;5092410;28;20496;-51
2022/02/18 02:00:29;;;;;;;4.37;2.00;;;9.50;99.90;;;;;;5107867;28;20469;-53
2022/02/18 02:02:59;;;;;;;4.10;2.57;;;9.40;99.90;;;;;;5111312;28;20563;-52
2022/02/18 02:05:28;;;;;;;3.80;1.80;;;9.40;99.90;;;;;;5105427;28;20481;-51
2022/02/18 02:07:59;;;;;;;3.80;1.67;;;9.40;99.90;;;;;;5092655;28;20468;-53
2022/02/18 02:10:27;;;;;;;4.87;1.93;;;9.40;99.90;;;;;;5110237;28;20468;-52
2022/02/18 02:13:01;;;;;;;4.13;1.70;;;9.40;99.90;;;;;;5091172;28;20447;-53
2022/02/18 02:15:39;;;;;;;3.00;1.60;;;9.40;99.90;;;;;;5092339;28;20483;-52
2022/02/18 02:18:15;;;;;;;4.60;1.47;;;9.40;99.90;;;;;;5091719;28;20440;-50
2022/02/18 02:20:45;;;;;;;5.10;2.23;;;9.40;99.90;;;;;;5074885;28;20472;-52
2022/02/18 02:23:15;;;;;;;3.03;2.13;;;9.40;99.90;;;;;;5072057;28;20457;-53
2022/02/18 02:25:45;;;;;;;3.20;1.50;;;9.40;99.90;;;;;;5089022;28;20461;-52
2022/02/18 02:28:21;;;;;;;4.20;1.75;;;9.40;99.90;;;;;;5084581;28;20922;-55
2022/02/18 02:30:51;;;;;;;4.50;2.17;;;9.40;99.90;;;;;;5072186;28;20250;-51
2022/02/18 02:33:20;;;;;;;4.23;1.67;;;9.40;99.90;;;;;;5071220;28;20938;-51
2022/02/18 02:35:52;;;;;;;3.57;2.10;;;9.40;99.90;;;;;;5071809;28;20445;-52
2022/02/18 02:38:21;;;;;;;4.93;1.93;;;9.40;99.90;;;;;;5083695;28;20439;-52
2022/02/18 02:40:50;;;;;;;4.50;1.83;;;9.40;99.90;;;;;;5092265;28;20451;-52
2022/02/18 02:43:19;;;;;;;3.90;1.70;;;9.40;99.90;;;;;;5072899;28;20484;-52
2022/02/18 02:45:48;;;;;;;5.13;1.87;;;9.40;99.90;;;;;;5080937;28;20275;-51
2022/02/18 02:48:17;;;;;;;4.43;1.90;;;9.40;99.90;;;;;;5061304;28;20813;-51
2022/02/18 02:51:01;;;;;;;2.93;1.50;;;9.40;99.90;;;;;;5061576;28;20503;-52
2022/02/18 02:53:33;;;;;;;5.40;1.87;;;9.40;99.90;;;;;;5091235;28;20543;-52
2022/02/18 02:56:02;;;;;;;3.70;1.38;;;9.40;99.90;;;;;;5089229;28;20493;-51
2022/02/18 02:58:30;;;;;;;5.32;2.00;;;9.40;99.90;;;;;;5083900;28;20219;-53
2022/02/18 03:01:02;;;;;;;5.50;1.95;;;9.40;99.90;;;;;;5071494;28;20682;-54
2022/02/18 03:03:39;;;;;;;3.58;1.45;;;9.40;99.90;;;;;;5070684;28;20246;-55
2022/02/18 03:06:08;;;;;;;2.43;1.50;;;9.40;99.90;;;;;;5089131;28;20598;-54
2022/02/18 03:08:38;;;;;;;7.17;2.33;;;9.40;99.90;;;;;;5091738;28;20850;-51
2022/02/18 03:11:17;;;;;;;5.85;2.63;;;9.40;99.90;;;;;;5091405;28;20463;-52
2022/02/18 03:14:19;;;;;;;5.70;1.97;;;9.40;99.90;;;;;;5071608;28;20471;-52
2022/02/18 03:16:57;;;;;;;5.57;1.75;;;9.40;99.90;;;;;;5083743;28;20447;-51
2022/02/18 03:19:25;;;;;;;2.43;1.47;;;9.30;99.90;;;;;;5077842;28;20272;-52
2022/02/18 03:21:56;;;;;;;4.60;1.30;;;9.30;99.90;;;;;;5088418;28;20446;-54
2022/02/18 03:24:25;;;;;;;5.87;1.67;;;9.30;99.90;;;;;;5102558;28;20473;-53
2022/02/18 03:26:55;;;;;;;3.73;1.33;;;9.30;99.90;;;;;;5076651;28;20447;-52
2022/02/18 03:29:28;;;;;;;4.83;1.57;;;9.30;99.90;;;;;;5084705;28;20469;-52
2022/02/18 03:32:01;;;;;;;4.35;1.50;;;9.30;99.90;;;;;;5089673;28;20434;-51
2022/02/18 03:34:31;;;;;;;7.40;1.90;;;9.30;99.90;;;;;;5076493;28;20221;-53
2022/02/18 03:37:00;;;;;;;5.40;2.07;;;9.30;99.90;;;;;;5091788;28;20830;-53
2022/02/18 03:39:32;;;;;;;3.20;1.97;;;9.30;99.90;;;;;;5090443;28;20790;-53
2022/02/18 03:42:02;;;;;;;5.20;1.60;;;9.30;99.90;;;;;;5091638;28;20859;-52
2022/02/18 03:44:32;;;;;;;3.03;1.40;;;9.30;99.90;;;;;;5073417;28;20476;-52
2022/02/18 03:47:04;;;;;;;3.00;1.70;;;9.30;99.90;;;;;;5089455;28;20924;-53
2022/02/18 03:49:34;;;;;;;3.65;1.48;;;9.30;99.90;;;;;;5089010;28;20707;-52
2022/02/18 03:52:06;;;;;;;4.30;1.53;;;9.30;99.90;;;;;;5079646;28;20207;-52
2022/02/18 03:54:36;;;;;;;1.87;1.70;;;9.30;99.90;;;;;;5103604;28;20555;-55
2022/02/18 03:57:04;;;;;;;3.30;1.53;;;9.30;99.90;;;;;;5094279;28;20431;-52
2022/02/18 03:59:33;;;;;;;3.57;1.87;;;9.30;99.90;;;;;;5085353;28;20530;-54
2022/02/18 04:02:04;;;;;;;2.80;1.85;;;9.30;99.90;;;;;;5077263;28;20951;-52
2022/02/18 04:04:33;;;;;;;7.10;1.97;;;9.30;99.90;;;;;;5079738;28;20257;-53
2022/02/18 04:07:20;;;;;;;5.82;2.55;;;9.30;99.90;;;;;;5113767;28;20525;-52
2022/02/18 04:09:58;;;;;;;6.50;2.43;;;9.30;99.90;;;;;;5089833;28;20230;-50
2022/02/18 04:12:27;;;;;;;3.93;1.60;;;9.30;99.90;;;;;;5075472;28;20451;-53
2022/02/18 04:15:02;;;;;;;5.90;2.10;;;9.30;99.90;;;;;;5090632;28;20489;-52
2022/02/18 04:17:32;;;;;;;5.50;1.97;;;9.30;99.90;;;;;;5075060;28;20436;-52
2022/02/18 04:20:27;;;;;;;3.27;1.40;;;9.30;99.90;;;;;;5079988;28;20460;-52
2022/02/18 04:23:32;;;;;;;5.73;1.60;;;9.20;99.90;;;;;;5091119;28;20462;-51
2022/02/18 04:26:02;;;;;;;2.60;1.73;;;9.30;99.90;;;;;;5094562;28;20443;-52
2022/02/18 04:28:33;;;;;;;6.30;2.30;;;9.20;99.90;;;;;;5106743;28;20540;-50
2022/02/18 04:31:02;;;;;;;3.00;1.80;;;9.20;99.90;;;;;;5112566;28;20951;-51
2022/02/18 04:33:30;;;;;;;7.57;3.27;;;9.20;99.90;;;;;;5107675;28;20523;-53
2022/02/18 04:35:58;;;;;;;6.27;1.50;;;9.20;99.90;;;;;;5092945;28;20467;-50
2022/02/18 04:38:26;;;;;;;7.10;1.90;;;9.20;99.90;;;;;;5092538;28;20467;-53
2022/02/18 04:40:54;;;;;;;5.13;1.87;;;9.20;99.90;;;;;;5092775;28;20447;-52
2022/02/18 04:43:24;;;;;;;3.37;1.67;;;9.20;99.90;;;;;;5091913;28;20560;-51
2022/02/18 04:45:52;;;;;;;2.03;1.20;;;9.20;99.90;;;;;;5106414;28;20416;-55
2022/02/18 04:48:21;;;;;;;3.80;1.80;;;9.20;99.90;;;;;;5102321;28;20867;-52
2022/02/18 04:50:49;;;;;;;4.60;2.00;;;9.20;99.90;;;;;;5092571;28;20460;-51
2022/02/18 04:53:35;;;;;;;2.97;2.07;;;9.20;99.90;;;;;;5095577;28;20461;-52
2022/02/18 04:56:05;;;;;;;5.53;1.80;;;9.20;99.90;;;;;;5091921;28;20429;-52
2022/02/18 04:58:35;;;;;;;6.23;2.57;;;9.20;99.90;;;;;;5090625;28;20474;-52
2022/02/18 05:01:04;;;;;;;5.13;1.80;;;9.20;99.90;;;;;;5092299;28;20813;-52
2022/02/18 05:03:32;;;;;;;5.33;2.50;;;9.20;99.90;;;;;;5091048;28;20226;-54
2022/02/18 05:06:00;;;;;;;5.00;1.93;;;9.20;99.90;;;;;;5091397;28;20461;-52
2022/02/18 05:08:29;;;;;;;6.03;2.03;;;9.20;99.90;;;;;;5094532;28;20479;-55
2022/02/18 05:10:57;;;;;;;3.40;1.90;;;9.20;99.90;;;;;;5112668;28;20498;-50
2022/02/18 05:13:25;;;;;;;6.07;2.20;;;9.20;99.90;;;;;;5102315;28;20458;-51
2022/02/18 05:15:55;;;;;;;6.60;2.37;;;9.20;99.90;;;;;;5091639;28;20482;-53
2022/02/18 05:18:23;;;;;;;2.77;1.53;;;9.20;99.90;;;;;;5091740;28;20475;-51
2022/02/18 05:20:52;;;;;;;3.03;1.20;;;9.20;99.90;;;;;;5091701;28;20460;-50
2022/02/18 05:23:20;;;;;;;6.90;2.20;;;9.20;99.90;;;;;;5091255;28;20478;-52
2022/02/18 05:25:48;;;;;;;5.27;2.13;;;9.20;99.90;;;;;;5093237;28;20911;-50
2022/02/18 05:28:16;;;;;;;2.33;1.63;;;9.20;99.90;;;;;;5108896;28;20470;-52
2022/02/18 05:30:45;;;;;;;7.03;2.83;;;9.20;99.90;;;;;;5091654;28;20794;-54
2022/02/18 05:33:15;;;;;;;3.28;1.40;;;9.10;99.90;;;;;;5089977;28;20437;-51
2022/02/18 05:35:43;;;;;;;3.57;1.80;;;9.20;99.90;;;;;;5091709;28;20199;-53
2022/02/18 05:38:11;;;;;;;7.38;2.58;;;9.20;99.90;;;;;;5094626;28;20467;-54
2022/02/18 05:40:39;;;;;;;5.00;1.50;;;9.20;99.90;;;;;;5112222;28;20236;-54
2022/02/18 05:43:07;;;;;;;3.25;1.58;;;9.20;99.90;;;;;;5095377;28;20475;-53
2022/02/18 05:45:35;;;;;;;3.00;1.33;;;9.20;99.90;;;;;;5091099;28;20318;-51
2022/02/18 05:48:04;;;;;;;3.20;1.53;;;9.10;99.90;;;;;;5091119;28;20469;-53
2022/02/18 05:50:34;;;;;;;5.10;1.58;;;9.10;99.90;;;;;;5090947;28;20476;-51
2022/02/18 05:53:02;;;;;;;7.50;2.70;;;9.10;99.90;;;;;;5091146;28;20285;-49
2022/02/18 05:55:30;;;;;;;3.57;1.77;;;9.10;99.90;;;;;;5090249;28;20890;-52
2022/02/18 05:57:58;;;;;;;5.73;2.90;;;9.10;99.90;;;;;;5104145;28;20474;-52
2022/02/18 06:00:26;;;;;;;3.80;1.83;;;9.10;99.90;;;;;;5092268;28;20881;-53
2022/02/18 06:02:54;;;;;;;5.53;2.13;;;9.20;99.90;;;;;;5101499;28;20459;-53
2022/02/18 06:05:22;;;;;;;4.50;1.80;;;9.10;99.90;;;;;;5095405;28;20472;-51
2022/02/18 06:07:52;;;;;;;4.13;1.83;;;9.10;99.90;;;;;;5090652;28;20438;-52
2022/02/18 06:10:23;;;;;;;5.57;2.23;;;9.10;99.90;;;;;;5090416;28;21003;-52
2022/02/18 06:12:52;;;;;;;4.47;2.15;;;9.10;99.90;;;;;;5099332;28;20443;-53
2022/02/18 06:15:22;;;;;;;3.30;2.08;;;9.10;99.90;;;;;;5090087;28;20238;-51
2022/02/18 06:17:50;;;;;;;3.90;1.65;;;9.10;99.90;;;;;;5102321;28;20214;-54
2022/02/18 06:20:19;;;;;;;3.10;1.50;;;9.10;99.90;;;;;;5096353;28;20656;-53
2022/02/18 06:22:47;;;;;;;4.90;2.35;;;9.10;99.90;;;;;;5090169;28;20448;-49
2022/02/18 06:25:17;;;;;;;6.70;2.30;;;9.10;99.90;;;;;;5089135;28;20617;-52
2022/02/18 06:27:45;;;;;;;6.73;2.70;;;9.10;99.90;;;;;;5090440;28;21031;-51
2022/02/18 06:30:14;;;;;;;5.72;3.78;;;9.10;99.90;;;;;;5088642;28;21057;-53
2022/02/18 06:32:43;;;;;;;4.27;1.67;;;9.10;99.90;;;;;;5090612;28;20319;-52
2022/02/18 06:35:11;;;;;;;6.32;2.20;;;9.10;99.90;;;;;;5096439;28;20481;-52
2022/02/18 06:37:40;;;;;;;5.50;2.40;;;9.10;99.90;;;;;;5111011;28;20222;-50
2022/02/18 06:40:10;;;;;;;5.63;1.85;;;9.10;99.90;;;;;;5109710;28;20280;-53
2022/02/18 06:42:41;;;;;;;4.45;2.40;;;9.10;99.90;;;;;;5098719;28;20203;-52
2022/02/18 06:45:10;;;;;;;3.20;2.00;;;9.10;99.90;;;;;;5088621;28;20229;-53
2022/02/18 06:47:41;;;;;;;4.47;1.52;;;9.10;99.90;;;;;;5090607;28;20191;-52
2022/02/18 06:50:11;;;;;;;6.47;2.53;;;9.10;99.90;;;;;;5090427;28;20565;-51
2022/02/18 06:52:40;;;;;;;4.30;2.00;;;9.10;99.90;;;;;;5089862;28;20193;-51
2022/02/18 06:55:09;;;;;;;4.93;1.50;;;9.10;99.90;;;;;;5092358;28;20217;-52
2022/02/18 06:57:41;;;;;;;3.03;1.70;;;9.10;99.90;;;;;;5090358;28;20990;-50
2022/02/18 07:00:12;;;;;;;2.75;1.45;;;9.10;99.90;;;;;;5099381;28;20211;-50
2022/02/18 07:02:40;;;;;;;6.50;1.90;;;9.10;99.90;;;;;;5090538;28;20186;-51
2022/02/18 07:05:12;;;;;;;2.30;1.70;;;9.10;99.90;;;;;;5089358;28;20231;-52
2022/02/18 07:07:43;;;;;;;3.10;1.40;;;9.10;99.90;;;;;;5094038;28;20436;-52
2022/02/18 07:10:15;;;;;;;5.20;1.77;;;9.10;99.90;;;;;;5094991;28;20215;-53
2022/02/18 07:12:46;;;;;;;5.60;2.00;;;9.10;99.90;;;;;;5089598;28;20967;-53
2022/02/18 07:15:16;;;;;;;5.57;1.67;;;9.10;99.90;;;;;;5075198;28;20210;-54
2022/02/18 07:17:45;;;;;;;4.30;2.00;;;9.10;99.90;;;;;;5089971;28;20573;-52
2022/02/18 07:20:16;;;;;;;4.15;2.25;;;9.10;99.90;;;;;;5093947;28;20224;-52
2022/02/18 07:22:46;;;;;;;5.10;1.40;;;9.10;99.90;;;;;;5104794;28;20244;-51
2022/02/18 07:25:18;;;;;;;4.80;1.67;;;9.10;99.90;;;;;;5103336;28;20474;-55
2022/02/18 07:27:48;;;;;;;3.17;1.70;;;9.10;99.90;;;;;;5089064;28;20196;-51
2022/02/18 07:30:17;;;;;;;2.73;1.70;;;9.10;99.90;;;;;;5102920;28;20490;-51
2022/02/18 07:32:45;;;;;;;3.23;1.50;;;9.10;99.90;;;;;;5110393;28;20468;-52
2022/02/18 07:35:13;;;;;;;3.07;1.20;;;9.10;99.90;;;;;;5094499;28;20469;-54
2022/02/18 07:37:44;;;;;;;3.35;1.27;;;9.10;99.90;;;;;;5099447;28;20436;-53
2022/02/18 07:40:13;;;;;;;2.50;1.98;;;9.00;99.90;;;;;;5088429;28;20280;-50
2022/02/18 07:42:43;;;;;;;3.58;2.20;;;9.00;99.90;;;;;;5103820;28;20188;-51
2022/02/18 07:45:15;;;;;;;3.70;1.42;;;9.10;99.90;;;;;;5091554;28;20622;-52
2022/02/18 07:47:45;;;;;;;2.53;1.42;;;9.00;99.90;;;;;;5089085;28;20202;-52
2022/02/18 07:50:14;;;;;;;2.33;1.20;;;9.10;99.90;;;;;;5070210;28;20652;-53
2022/02/18 07:52:43;;;;;;;2.65;2.10;;;9.00;99.90;;;;;;5100460;28;20284;-53
2022/02/18 07:55:11;;;;;;;3.93;2.00;;;9.10;99.90;;;;;;5096188;28;20634;-51
2022/02/18 07:57:40;;;;;;;3.15;1.60;;;9.00;99.90;;;;;;5088920;28;20495;-50
2022/02/18 08:00:10;;;;;;;2.08;1.30;;;9.00;99.90;;;;;;5088727;28;20306;-52
2022/02/18 08:02:44;;;;;;;4.33;1.50;;;9.00;99.90;;;;;;5098713;28;20197;-52
2022/02/18 08:05:13;;;;;;;6.03;2.03;;;9.00;99.90;;;;;;5092838;28;20471;-51
2022/02/18 08:07:42;;;;;;;2.70;1.42;;;9.00;99.90;;;;;;5088690;28;20439;-51
2022/02/18 08:10:13;;;;;;;2.97;1.70;;;9.00;99.90;;;;;;5088517;28;20230;-51
2022/02/18 08:12:43;;;;;;;1.85;1.20;;;9.00;99.90;;;;;;5089653;28;20194;-50
2022/02/18 08:15:12;;;;;;;2.63;1.83;;;9.00;99.90;;;;;;5087186;28;20241;-54
2022/02/18 08:17:43;;;;;;;3.08;1.50;;;9.00;99.90;;;;;;5089257;28;20523;-54
2022/02/18 08:20:12;;;;;;;2.73;1.67;;;9.00;99.90;;;;;;5095655;28;20303;-53
2022/02/18 08:22:42;;;;;;;3.50;1.53;;;9.00;99.90;;;;;;5094437;28;20930;-54
2022/02/18 08:25:13;;;;;;;6.45;2.03;;;9.00;99.90;;;;;;5107357;28;20518;-54
2022/02/18 08:27:43;;;;;;;1.90;1.60;;;9.00;99.90;;;;;;5106013;28;20199;-53
2022/02/18 08:30:13;;;;;;;1.70;1.42;;;9.00;99.90;;;;;;5108223;28;20223;-52
2022/02/18 08:32:45;;;;;;;3.35;1.88;;;9.00;99.90;;;;;;5109064;28;20214;-52
2022/02/18 08:35:14;;;;;;;2.53;1.30;;;9.00;99.90;;;;;;5097522;28;20274;-53
2022/02/18 08:37:46;;;;;;;3.42;1.88;;;9.00;99.90;;;;;;5089208;28;20515;-51
2022/02/18 08:40:16;;;;;;;3.97;1.70;;;9.00;99.90;;;;;;5087433;28;20268;-52
2022/02/18 08:42:46;;;;;;;2.22;1.85;;;9.00;99.90;;;;;;5090632;28;20195;-53
2022/02/18 08:45:16;;;;;;;4.00;1.50;;;9.00;99.90;;;;;;5092273;28;20237;-51
2022/02/18 08:47:49;;;;;;;2.63;1.60;;;9.00;99.90;;;;;;5092900;28;20270;-50
2022/02/18 08:50:18;;;;;;;2.70;1.70;;;9.00;99.90;;;;;;5092211;28;20481;-51
2022/02/18 08:55:41;;;;;;;1.90;1.47;;;9.00;99.90;;;;;;5110045;28;20733;-52
2022/02/18 08:58:21;;;;;;;3.10;1.50;;;9.00;99.90;;;;;;5105067;28;20533;-53
2022/02/18 09:00:50;;;;;;;2.97;1.55;;;9.00;99.90;;;;;;5113143;28;20882;-55
2022/02/18 09:03:20;;;;;;;3.00;1.20;;;9.00;99.90;;;;;;5109250;28;20652;-51
2022/02/18 09:05:49;;;;;;;1.85;1.25;;;9.00;99.90;;;;;;5105740;28;20460;-52
2022/02/18 09:08:21;;;;;;;2.22;1.55;;;9.00;99.90;;;;;;5111470;28;20190;-51
2022/02/18 09:10:53;;;;;;;3.27;1.60;;;9.00;99.90;;;;;;5107704;28;20421;-52
2022/02/18 09:13:25;;;;;;;3.10;0.93;;;9.00;99.90;;;;;;5093738;28;20448;-53
2022/02/18 09:15:54;;;;;;;2.22;1.20;;;9.00;99.90;;;;;;5111709;28;20222;-52
2022/02/18 09:18:36;;;;;;;3.10;1.35;;;9.00;99.90;;;;;;5104144;28;20309;-53
2022/02/18 09:21:06;;;;;;;1.67;1.50;;;9.00;99.90;;;;;;5092504;28;20229;-50
2022/02/18 09:23:55;;;;;;;3.47;1.10;;;9.00;99.90;;;;;;5091464;28;20507;-52
2022/02/18 09:26:26;;;;;;;2.00;1.03;;;9.00;99.90;;;;;;5091318;28;20463;-52
2022/02/18 09:28:59;;;;;;;2.35;1.25;;;9.00;99.90;;;;;;5091834;28;20458;-50
2022/02/18 09:31:28;;;;;;;2.05;0.90;;;9.00;99.90;;;;;;5102255;28;20231;-52
2022/02/18 09:34:00;;;;;;;3.60;1.40;;;9.00;99.90;;;;;;5106908;28;20218;-50
2022/02/18 09:36:32;;;;;;;1.80;1.13;;;9.00;99.90;;;;;;5096115;28;20188;-53
2022/02/18 09:39:02;;;;;;;4.10;1.02;;;9.00;99.90;;;;;;5091924;28;20459;-52
2022/02/18 09:41:32;;;;;;;1.55;0.90;;;9.00;99.90;;;;;;5107574;28;20754;-51
2022/02/18 09:44:18;;;;;;;1.05;0.70;;;9.00;99.90;;;;;;5079215;28;20222;-53
2022/02/18 09:46:48;;;;;;;3.72;1.40;;;9.00;99.90;;;;;;5092049;28;20322;-54
2022/02/18 09:49:19;;;;;;;1.20;1.08;;;9.00;99.90;;;;;;5072754;28;20307;-52
2022/02/18 09:51:50;;;;;;;1.15;1.02;;;9.00;99.90;;;;;;5080237;28;20586;-51
2022/02/18 09:54:26;;;;;;;1.48;1.30;;;9.00;99.90;;;;;;5090847;28;20235;-51
2022/02/18 09:56:56;;;;;;;1.98;0.80;;;9.00;99.90;;;;;;5092313;28;20263;-51
2022/02/18 09:59:32;;;;;;;1.05;0.75;;;9.00;99.90;;;;;;5106316;28;20214;-52
2022/02/18 10:02:06;;;;;;;1.30;0.90;;;9.00;99.90;;;;;;5111700;28;20247;-51
2022/02/18 10:04:37;;;;;;;0.75;0.68;;;9.00;99.90;;;;;;5107062;28;20218;-52
2022/02/18 10:07:08;;;;;;;1.13;0.70;;;9.00;99.90;;;;;;5111862;28;20243;-52
2022/02/18 10:09:41;;;;;;;1.37;1.20;;;9.00;99.90;;;;;;5094135;28;20456;-50
2022/02/18 10:12:12;;;;;;;2.20;1.00;;;9.00;99.90;;;;;;5095052;28;20482;-52
2022/02/18 10:14:57;;;;;;;1.55;0.90;;;9.00;99.90;;;;;;5109013;28;20252;-50
2022/02/18 10:17:38;;;;;;;1.45;0.90;;;9.00;99.90;;;;;;5090746;28;20201;-52
2022/02/18 10:20:28;;;;;;;1.20;1.00;;;9.00;99.90;;;;;;5093916;28;20718;-51
2022/02/18 10:23:02;;;;;;;1.00;0.90;;;9.00;99.90;;;;;;5093821;28;20482;-52
2022/02/18 10:25:31;;;;;;;1.90;1.00;;;9.00;99.90;;;;;;5110045;28;20316;-51
2022/02/18 10:28:02;;;;;;;0.75;0.63;;;9.00;99.90;;;;;;5105472;28;20472;-52
2022/02/18 10:30:31;;;;;;;0.88;0.60;;;9.10;99.90;;;;;;5090566;28;20229;-53
2022/02/18 10:33:12;;;;;;;1.67;0.73;;;9.10;99.90;;;;;;5091140;28;20190;-52
2022/02/18 10:35:45;;;;;;;1.40;0.93;;;9.10;99.90;;;;;;5093138;28;20465;-53
2022/02/18 10:38:14;;;;;;;1.47;1.00;;;9.10;99.90;;;;;;5086627;28;20197;-51
2022/02/18 10:40:47;;;;;;;1.10;0.60;;;9.10;99.90;;;;;;5106231;28;20463;-50
2022/02/18 10:43:19;;;;;;;0.83;0.63;;;9.10;99.90;;;;;;5102777;28;20207;-50
2022/02/18 10:45:59;;;;;;;0.70;0.70;;;9.10;99.90;;;;;;5107432;28;20441;-51
2022/02/18 10:48:32;;;;;;;2.15;0.80;;;9.10;99.90;;;;;;5099260;28;20456;-52
2022/02/18 10:51:14;;;;;;;1.10;0.93;;;9.10;99.90;;;;;;5090933;28;20210;-53
2022/02/18 10:53:44;;;;;;;0.90;0.80;;;9.10;99.90;;;;;;5108388;28;20341;-51
2022/02/18 10:56:15;;;;;;;1.13;0.80;;;9.10;99.90;;;;;;5110370;28;20450;-52
2022/02/18 10:58:48;;;;;;;1.60;1.03;;;9.10;99.90;;;;;;5102983;28;20459;-52
2022/02/18 11:01:18;;;;;;;2.10;0.70;;;9.10;99.90;;;;;;5110270;28;20500;-51
2022/02/18 11:03:49;;;;;;;1.20;0.70;;;9.10;99.90;;;;;;5107516;28;20464;-56
2022/02/18 11:06:23;;;;;;;0.70;0.50;;;9.10;99.90;;;;;;5089643;28;20513;-49
2022/02/18 11:08:56;;;;;;;3.13;1.08;;;9.10;99.90;;;;;;5087588;28;20987;-50
2022/02/18 11:11:30;;;;;;;1.53;0.50;;;9.10;99.90;;;;;;5082036;28;20266;-53
2022/02/18 11:14:00;;;;;;;1.00;0.70;;;9.20;99.90;;;;;;5089334;28;20971;-52
2022/02/18 11:16:30;;;;;;;1.00;0.60;;;9.20;99.90;;;;;;5093404;28;20427;-51
2022/02/18 11:19:00;;;;;;;0.80;0.70;;;9.20;99.90;;;;;;5107472;28;20487;-52
2022/02/18 11:21:31;;;;;;;1.50;0.70;;;9.20;99.90;;;;;;5090369;28;20445;-53
2022/02/18 11:24:02;;;;;;;1.10;0.47;;;9.20;99.90;;;;;;5088591;28;20475;-53
2022/02/18 11:26:33;;;;;;;0.80;0.50;;;9.20;99.90;;;;;;5090681;28;20441;-54
2022/02/18 11:29:03;;;;;;;1.60;0.88;;;9.20;99.90;;;;;;5090637;28;20210;-52
2022/02/18 11:31:45;;;;;;;3.87;0.90;;;9.20;99.90;;;;;;5090396;28;20277;-52
2022/02/18 11:34:47;;;;;;;0.73;0.60;;;9.20;99.90;;;;;;5076285;28;20485;-55
2022/02/18 11:37:47;;;;;;;1.23;1.00;;;9.20;99.90;;;;;;5087825;28;20534;-50
2022/02/18 11:40:33;;;;;;;1.20;0.80;;;9.20;99.90;;;;;;5089558;28;20492;-56
2022/02/18 11:43:21;;;;;;;0.90;0.80;;;9.20;99.90;;;;;;5090193;28;20191;-51
2022/02/18 11:45:58;;;;;;;1.80;0.98;;;9.20;99.90;;;;;;5089673;28;20459;-49
2022/02/18 11:48:44;;;;;;;0.70;0.60;;;9.20;99.90;;;;;;5089534;28;20231;-51
2022/02/18 11:51:19;;;;;;;1.05;0.85;;;9.30;99.90;;;;;;5089446;28;20446;-53
2022/02/18 11:53:51;;;;;;;1.03;0.60;;;9.20;99.90;;;;;;5088975;28;20219;-51
2022/02/18 11:56:40;;;;;;;3.23;0.50;;;9.30;99.90;;;;;;5089847;28;20532;-51
2022/02/18 11:59:09;;;;;;;0.85;0.60;;;9.30;99.90;;;;;;5090026;28;20561;-54
2022/02/18 12:02:03;;;;;;;1.60;0.67;;;9.30;99.90;;;;;;5109632;28;20301;-52
2022/02/18 12:04:35;;;;;;;0.77;0.60;;;9.30;99.90;;;;;;5094922;28;20863;-55
2022/02/18 12:07:25;;;;;;;0.65;0.43;;;9.30;99.90;;;;;;5105259;28;20420;-53
2022/02/18 12:10:08;;;;;;;1.03;0.70;;;9.30;99.90;;;;;;5108570;28;20640;-52
2022/02/18 12:12:41;;;;;;;0.50;0.40;;;9.30;99.90;;;;;;5107676;28;20784;-53
2022/02/18 12:15:13;;;;;;;0.77;0.60;;;9.30;99.90;;;;;;5102321;28;20484;-50
2022/02/18 12:17:48;;;;;;;1.00;0.47;;;9.30;99.90;;;;;;5094675;28;20444;-54
2022/02/18 12:20:28;;;;;;;0.60;0.43;;;9.30;99.90;;;;;;5098787;28;20304;-53
2022/02/18 12:22:58;;;;;;;0.80;0.60;;;9.30;99.90;;;;;;5093110;28;20508;-50
2022/02/18 12:25:31;;;;;;;0.80;0.40;;;9.30;99.90;;;;;;5083694;28;20468;-50
2022/02/18 12:28:22;;;;;;;0.60;0.40;;;9.30;99.90;;;;;;5092547;28;21010;-52
2022/02/18 12:30:56;;;;;;;0.70;0.60;;;9.30;99.90;;;;;;5112737;28;20448;-54
2022/02/18 12:33:29;;;;;;;0.67;0.50;;;9.30;99.90;;;;;;5101271;28;20248;-54
2022/02/18 12:35:58;;;;;;;0.77;0.50;;;9.30;99.90;;;;;;5107540;28;20470;-51
2022/02/18 12:38:30;;;;;;;0.50;0.40;;;9.30;99.90;;;;;;5099099;28;20486;-53
2022/02/18 12:41:03;;;;;;;0.97;0.47;;;9.30;99.90;;;;;;5092388;28;20510;-52
2022/02/18 12:43:33;;;;;;;1.03;0.60;;;9.30;99.90;;;;;;5091924;28;20554;-51
2022/02/18 12:46:05;;;;;;;0.50;0.40;;;9.30;99.90;;;;;;5092519;28;20444;-52
2022/02/18 12:48:42;;;;;;;0.63;0.40;;;9.30;99.90;;;;;;5094857;28;20472;-52
2022/02/18 12:51:14;;;;;;;0.70;0.70;;;9.30;99.90;;;;;;5097246;28;20797;-55
2022/02/18 12:53:46;;;;;;;0.63;0.63;;;9.40;99.90;;;;;;5110464;28;20500;-51
2022/02/18 12:56:20;;;;;;;1.43;0.80;;;9.40;99.90;;;;;;5113231;28;20469;-52
2022/02/18 12:58:54;;;;;;;1.63;0.60;;;9.40;99.90;;;;;;5110531;28;20460;-54
2022/02/18 13:01:25;;;;;;;2.77;1.20;;;9.50;99.90;;;;;;5113416;28;20440;-52
2022/02/18 13:03:55;;;;;;;0.93;0.60;;;9.50;99.90;;;;;;5109580;28;20874;-54
2022/02/18 13:06:24;;;;;;;0.80;0.80;;;9.50;99.90;;;;;;5093271;28;20435;-51
2022/02/18 13:08:55;;;;;;;1.33;1.17;;;9.40;99.90;;;;;;5091780;28;20463;-52
2022/02/18 13:11:31;;;;;;;1.50;0.87;;;9.50;99.90;;;;;;5092402;28;20459;-52
2022/02/18 13:14:16;;;;;;;1.33;0.80;;;9.40;99.90;;;;;;5091623;28;20888;-53
2022/02/18 13:16:50;;;;;;;0.60;0.50;;;9.50;99.90;;;;;;5092113;28;20425;-52
2022/02/18 13:19:20;;;;;;;0.80;0.70;;;9.40;99.90;;;;;;5089413;28;20530;-54
2022/02/18 13:21:49;;;;;;;1.10;0.63;;;9.40;99.90;;;;;;5092177;28;20489;-53
2022/02/18 13:24:27;;;;;;;0.80;0.60;;;9.40;99.90;;;;;;5086532;28;20507;-51